Time;durP1;ratioP1;P1;durP2;ratioP2;P2;SDS_P1;SDS_P2;PMS_P1;PMS_P2;Temp;Humidity;BMP_temperature;BMP_pressure;BME280_temperature;BME280_humidity;BME280_pressure;Samples;Min_cycle;Max_cycle;Signal;HPM_P1;HPM_P2
2022/04/08 00:00:34;;;;;;;;;1.00;1.00;;;;;9.99;55.38;100221.34;5065445;28;45227;-69
2022/04/08 00:03:00;;;;;;;;;1.00;1.00;;;;;10.07;55.54;100229.56;5077046;28;45578;-69
2022/04/08 00:05:25;;;;;;;;;2.33;1.33;;;;;10.08;55.33;100225.81;5069020;28;46534;-69
2022/04/08 00:07:51;;;;;;;;;0.00;0.00;;;;;10.19;55.35;100226.59;5076379;28;45455;-69
2022/04/08 00:10:16;;;;;;;;;1.00;0.67;;;;;10.24;54.92;100213.41;5065617;28;45476;-69
2022/04/08 00:12:41;;;;;;;;;0.00;0.00;;;;;10.28;55.27;100221.09;5076527;28;45369;-68
2022/04/08 00:15:07;;;;;;;;;0.00;0.00;;;;;10.26;54.99;100225.81;5064058;28;46949;-69
2022/04/08 00:17:33;;;;;;;;;1.00;0.00;;;;;10.17;55.54;100229.47;5069121;27;45670;-68
2022/04/08 00:19:58;;;;;;;;;2.00;1.00;;;;;10.11;55.49;100232.78;5065319;28;45323;-68
2022/04/08 00:22:24;;;;;;;;;1.00;1.00;;;;;10.01;55.13;100205.72;5074776;28;45444;-68
2022/04/08 00:24:50;;;;;;;;;0.00;0.00;;;;;10.08;55.31;100217.66;5066992;28;46035;-68
2022/04/08 00:27:15;;;;;;;;;1.00;1.00;;;;;10.17;55.29;100215.91;5077477;28;45436;-68
2022/04/08 00:29:41;;;;;;;;;2.67;0.67;;;;;10.26;55.24;100214.09;5087113;27;45309;-68
2022/04/08 00:32:06;;;;;;;;;1.33;0.00;;;;;10.31;55.18;100212.59;5078211;28;45306;-68
2022/04/08 00:34:32;;;;;;;;;0.00;0.00;;;;;10.14;55.50;100206.19;5072382;28;47557;-68
2022/04/08 00:36:57;;;;;;;;;1.00;1.00;;;;;10.28;55.69;100214.81;5068228;28;45456;-69
2022/04/08 00:39:22;;;;;;;;;3.67;1.00;;;;;10.33;55.11;100215.16;5072356;28;45291;-69
2022/04/08 00:41:48;;;;;;;;;0.00;0.00;;;;;10.27;55.31;100211.22;5078912;28;45382;-69
2022/04/08 00:44:14;;;;;;;;;1.00;1.00;;;;;10.27;55.60;100200.38;5075872;27;47169;-69
2022/04/08 00:46:40;;;;;;;;;1.33;1.00;;;;;10.20;55.75;100187.59;5067654;28;45540;-69
2022/04/08 00:49:06;;;;;;;;;0.33;0.33;;;;;10.25;55.37;100196.09;5072874;28;45325;-68
2022/04/08 00:51:34;;;;;;;;;2.00;1.00;;;;;10.12;55.94;100191.94;5067362;28;45404;-68
2022/04/08 00:54:01;;;;;;;;;0.00;0.00;;;;;10.21;56.16;100190.16;5084859;28;45424;-68
2022/04/08 00:56:29;;;;;;;;;0.00;0.00;;;;;10.10;56.15;100179.50;5078915;28;45438;-68
2022/04/08 00:58:55;;;;;;;;;4.00;1.00;;;;;10.05;56.58;100190.84;5064913;28;45448;-68
2022/04/08 01:01:21;;;;;;;;;0.67;0.67;;;;;10.23;56.64;100184.56;5066949;28;45475;-68
2022/04/08 01:03:46;;;;;;;;;0.00;0.00;;;;;10.22;56.58;100191.00;5074062;28;47296;-68
2022/04/08 01:06:12;;;;;;;;;1.00;0.00;;;;;10.08;56.72;100174.22;5070122;28;45343;-68
2022/04/08 01:08:39;;;;;;;;;2.00;0.67;;;;;10.15;56.77;100169.88;5073473;28;45452;-68
2022/04/08 01:11:04;;;;;;;;;2.00;0.00;;;;;10.10;56.75;100177.66;5067128;28;45437;-68
2022/04/08 01:13:30;;;;;;;;;0.00;0.00;;;;;10.00;56.79;100176.91;5071606;28;45386;-68
2022/04/08 01:15:55;;;;;;;;;2.33;1.00;;;;;10.09;56.93;100184.09;5065707;28;45394;-68
2022/04/08 01:18:20;;;;;;;;;1.67;0.67;;;;;10.19;56.66;100181.31;5078756;27;45231;-68
2022/04/08 01:20:46;;;;;;;;;0.67;0.67;;;;;10.24;56.72;100172.66;5064909;28;45299;-67
2022/04/08 01:23:15;;;;;;;;;1.00;1.00;;;;;10.16;56.55;100159.88;5079636;28;47272;-68
2022/04/08 01:25:40;;;;;;;;;1.00;1.00;;;;;10.13;56.82;100166.50;5064285;28;45351;-68
2022/04/08 01:28:06;;;;;;;;;0.00;0.00;;;;;10.11;56.92;100165.78;5080856;27;45407;-68
2022/04/08 01:30:31;;;;;;;;;1.00;1.00;;;;;10.11;56.96;100156.78;5084339;28;45487;-67
2022/04/08 01:32:57;;;;;;;;;1.67;0.00;;;;;9.96;57.58;100164.66;5075413;28;46704;-67
2022/04/08 01:35:22;;;;;;;;;0.00;0.00;;;;;10.11;56.88;100160.34;5064192;28;45285;-68
2022/04/08 01:37:47;;;;;;;;;0.33;0.33;;;;;9.99;57.05;100172.50;5075195;28;45472;-67
2022/04/08 01:40:13;;;;;;;;;1.00;1.00;;;;;9.97;57.37;100160.94;5064569;28;45315;-67
2022/04/08 01:42:38;;;;;;;;;1.00;0.00;;;;;9.89;57.40;100147.31;5074088;28;45503;-67
2022/04/08 01:45:04;;;;;;;;;3.00;2.00;;;;;10.05;57.48;100158.28;5082212;28;45433;-67
2022/04/08 01:47:29;;;;;;;;;4.00;1.00;;;;;10.14;57.18;100160.06;5077291;27;45969;-67
2022/04/08 01:49:54;;;;;;;;;1.67;0.00;;;;;10.23;56.73;100160.13;5084714;28;45471;-67
2022/04/08 01:52:20;;;;;;;;;1.00;0.67;;;;;10.29;57.26;100154.06;5069889;28;47400;-67
2022/04/08 01:54:45;;;;;;;;;5.00;1.00;;;;;10.29;56.78;100144.06;5077145;28;45343;-67
2022/04/08 01:57:11;;;;;;;;;0.00;0.00;;;;;10.39;56.94;100147.47;5074290;27;45673;-67
2022/04/08 01:59:36;;;;;;;;;0.00;0.00;;;;;10.40;56.45;100151.06;5068187;28;45279;-67
2022/04/08 02:02:02;;;;;;;;;0.67;0.67;;;;;10.26;56.72;100146.22;5069732;28;45462;-67
2022/04/08 02:04:28;;;;;;;;;2.33;1.00;;;;;10.29;56.55;100148.63;5071599;28;45635;-68
2022/04/08 02:06:54;;;;;;;;;3.00;1.00;;;;;10.20;56.95;100146.88;5070371;28;45429;-67
2022/04/08 02:09:20;;;;;;;;;2.00;1.00;;;;;10.30;57.14;100158.47;5068767;28;45494;-68
2022/04/08 02:11:46;;;;;;;;;1.67;1.00;;;;;10.32;56.79;100156.44;5065480;28;46551;-67
2022/04/08 02:14:11;;;;;;;;;2.67;1.00;;;;;10.28;56.97;100155.06;5076348;28;45475;-68
2022/04/08 02:16:36;;;;;;;;;1.00;1.00;;;;;10.30;57.16;100161.19;5076761;28;45306;-68
2022/04/08 02:19:02;;;;;;;;;1.00;0.00;;;;;10.25;57.05;100148.09;5066128;28;45313;-69
2022/04/08 02:21:27;;;;;;;;;3.33;0.00;;;;;10.12;57.31;100145.78;5081441;28;47229;-68
2022/04/08 02:23:53;;;;;;;;;1.00;0.00;;;;;10.23;57.19;100144.66;5080084;28;45641;-68
2022/04/08 02:26:19;;;;;;;;;1.00;1.00;;;;;10.30;57.05;100142.19;5095120;27;45511;-68
2022/04/08 02:28:45;;;;;;;;;2.00;1.00;;;;;10.38;56.95;100139.50;5079187;27;45438;-68
2022/04/08 02:31:11;;;;;;;;;0.00;0.00;;;;;10.33;57.04;100150.00;5078838;28;47402;-67
2022/04/08 02:33:36;;;;;;;;;0.33;0.00;;;;;10.21;56.83;100135.84;5090146;27;45324;-68
2022/04/08 02:36:03;;;;;;;;;1.00;1.00;;;;;10.24;57.10;100134.66;5081022;28;45416;-67
2022/04/08 02:38:29;;;;;;;;;3.00;2.00;;;;;10.28;57.29;100122.50;5069043;28;45291;-68
2022/04/08 02:40:54;;;;;;;;;2.00;0.00;;;;;10.26;57.22;100129.94;5066337;28;46187;-68
2022/04/08 02:43:20;;;;;;;;;1.00;1.00;;;;;10.31;57.45;100124.84;5088364;27;45353;-68
2022/04/08 02:45:45;;;;;;;;;0.00;0.00;;;;;10.40;57.03;100123.91;5077755;28;45514;-67
2022/04/08 02:48:13;;;;;;;;;1.00;1.00;;;;;10.27;57.21;100108.06;5074464;28;45538;-68
2022/04/08 02:50:39;;;;;;;;;0.67;0.67;;;;;10.25;57.03;100110.06;5080905;28;47587;-68
2022/04/08 02:53:05;;;;;;;;;1.00;0.00;;;;;10.28;57.42;100114.34;5067259;28;45610;-68
2022/04/08 02:55:30;;;;;;;;;2.67;1.00;;;;;10.34;57.15;100108.25;5085406;28;45227;-68
2022/04/08 02:57:56;;;;;;;;;1.33;0.00;;;;;10.40;57.16;100094.88;5081309;28;45610;-68
2022/04/08 03:00:21;;;;;;;;;0.33;0.33;;;;;10.37;57.25;100094.38;5065961;28;48298;-68
2022/04/08 03:02:47;;;;;;;;;0.00;0.00;;;;;10.42;57.33;100092.00;5079755;28;45367;-68
2022/04/08 03:05:14;;;;;;;;;3.00;2.00;;;;;10.46;57.12;100096.94;5070133;28;45441;-68
2022/04/08 03:07:40;;;;;;;;;1.00;0.00;;;;;10.38;57.74;100096.91;5077757;28;45315;-68
2022/04/08 03:10:07;;;;;;;;;2.33;1.00;;;;;10.42;57.43;100079.28;5085300;28;45461;-68
2022/04/08 03:12:32;;;;;;;;;1.00;1.00;;;;;10.41;57.54;100085.72;5078515;28;45465;-68
2022/04/08 03:14:59;;;;;;;;;1.67;1.00;;;;;10.48;57.78;100083.19;5079511;28;45346;-68
2022/04/08 03:17:25;;;;;;;;;2.00;0.33;;;;;10.45;57.86;100092.50;5070121;28;45440;-68
2022/04/08 03:19:51;;;;;;;;;0.67;0.00;;;;;10.46;58.24;100079.78;5066837;27;45389;-68
2022/04/08 03:22:20;;;;;;;;;4.00;1.00;;;;;10.45;58.32;100073.50;5073818;28;45464;-68
2022/04/08 03:24:46;;;;;;;;;0.00;0.00;;;;;10.53;58.35;100078.13;5067400;27;45393;-69
2022/04/08 03:27:12;;;;;;;;;1.00;1.00;;;;;10.43;57.51;100085.56;5073303;28;45858;-68
2022/04/08 03:29:38;;;;;;;;;0.67;0.67;;;;;10.41;57.88;100060.44;5088271;27;45509;-68
2022/04/08 03:32:03;;;;;;;;;2.50;0.50;;;;;10.55;58.19;100067.94;5084243;28;45697;-68
2022/04/08 03:34:29;;;;;;;;;4.00;1.00;;;;;10.51;58.44;100077.44;5066763;27;45349;-68
2022/04/08 03:36:54;;;;;;;;;2.67;1.00;;;;;10.56;58.94;100080.50;5070892;28;46270;-68
2022/04/08 03:39:20;;;;;;;;;2.33;1.00;;;;;10.29;59.19;100073.47;5087829;27;47091;-68
2022/04/08 03:41:45;;;;;;;;;1.33;1.00;;;;;10.36;59.97;100073.66;5068106;28;45354;-68
2022/04/08 03:44:10;;;;;;;;;3.67;1.00;;;;;10.35;60.37;100067.38;5081335;28;45470;-68
2022/04/08 03:46:36;;;;;;;;;1.00;1.00;;;;;10.41;60.04;100068.56;5068719;27;45231;-68
2022/04/08 03:49:01;;;;;;;;;0.00;0.00;;;;;10.23;60.61;100056.97;5090154;27;47494;-68
2022/04/08 03:51:26;;;;;;;;;2.00;2.00;;;;;10.33;60.12;100053.09;5070817;28;45438;-67
2022/04/08 03:53:52;;;;;;;;;1.33;0.00;;;;;10.38;60.91;100036.31;5066832;28;45309;-68
2022/04/08 03:56:18;;;;;;;;;1.33;1.33;;;;;10.34;61.72;100038.50;5074284;28;45339;-69
2022/04/08 03:58:43;;;;;;;;;2.00;1.00;;;;;10.32;62.01;100029.66;5082153;27;48258;-67
2022/04/08 04:01:09;;;;;;;;;1.00;1.00;;;;;10.26;63.16;100029.47;5065584;28;45569;-67
2022/04/08 04:03:34;;;;;;;;;3.00;1.00;;;;;10.21;62.82;100013.69;5072465;28;45250;-69
2022/04/08 04:06:01;;;;;;;;;1.00;1.00;;;;;10.16;63.73;100013.28;5066728;28;45290;-68
2022/04/08 04:08:26;;;;;;;;;3.00;1.00;;;;;10.10;63.47;100014.78;5071687;28;45405;-68
2022/04/08 04:10:52;;;;;;;;;2.00;1.00;;;;;10.09;63.89;100015.81;5065695;28;45363;-68
2022/04/08 04:13:17;;;;;;;;;1.00;1.00;;;;;10.19;64.10;100007.56;5079430;28;45422;-68
2022/04/08 04:15:42;;;;;;;;;1.00;0.67;;;;;10.23;64.38;100002.69;5065841;28;45357;-69
2022/04/08 04:18:08;;;;;;;;;1.00;1.00;;;;;10.22;64.65;99999.13;5067987;28;46092;-69
2022/04/08 04:20:34;;;;;;;;;3.00;0.00;;;;;10.23;65.13;99998.06;5065037;28;45321;-69
2022/04/08 04:22:59;;;;;;;;;0.00;0.00;;;;;10.22;65.22;99990.97;5075117;28;45417;-68
2022/04/08 04:25:26;;;;;;;;;2.00;2.00;;;;;10.19;64.81;99979.56;5065640;28;45322;-69
2022/04/08 04:27:51;;;;;;;;;4.33;2.00;;;;;10.09;66.15;99977.81;5068961;27;45444;-69
2022/04/08 04:30:16;;;;;;;;;2.33;1.67;;;;;9.91;66.30;99981.66;5064561;28;45491;-69
2022/04/08 04:32:42;;;;;;;;;2.00;2.00;;;;;9.98;67.17;99978.13;5075948;28;45147;-69
2022/04/08 04:35:07;;;;;;;;;4.00;1.00;;;;;9.99;67.58;99963.53;5065482;28;45422;-68
2022/04/08 04:37:36;;;;;;;;;1.00;1.00;;;;;10.07;67.50;99947.28;5070257;28;45523;-69
2022/04/08 04:40:04;;;;;;;;;1.00;1.00;;;;;10.07;67.17;99950.00;5076105;28;45329;-69
2022/04/08 04:42:29;;;;;;;;;3.67;2.00;;;;;10.10;67.35;99949.66;5073373;28;45334;-69
2022/04/08 04:44:55;;;;;;;;;2.00;1.00;;;;;10.07;68.45;99950.00;5066732;28;45331;-69
2022/04/08 04:47:20;;;;;;;;;3.00;0.67;;;;;9.86;68.97;99952.31;5071081;28;48105;-69
2022/04/08 04:49:46;;;;;;;;;2.67;1.00;;;;;9.78;69.88;99938.69;5067298;28;45249;-68
2022/04/08 04:52:11;;;;;;;;;1.00;1.00;;;;;9.73;70.03;99924.75;5066475;28;45373;-68
2022/04/08 04:54:37;;;;;;;;;3.33;1.33;;;;;9.55;70.56;99926.72;5067467;27;45393;-69
2022/04/08 04:57:03;;;;;;;;;0.33;0.33;;;;;9.60;71.10;99918.94;5067101;28;45676;-69
2022/04/08 04:59:28;;;;;;;;;2.00;1.00;;;;;9.65;71.19;99903.00;5064029;28;45344;-69
2022/04/08 05:01:54;;;;;;;;;1.33;0.00;;;;;9.68;71.23;99894.56;5068494;28;45928;-70
2022/04/08 05:04:19;;;;;;;;;1.67;1.33;;;;;9.67;70.33;99887.44;5072754;28;45313;-68
2022/04/08 05:06:45;;;;;;;;;8.00;2.50;;;;;9.64;71.64;99885.06;5078146;28;48216;-70
2022/04/08 05:09:10;;;;;;;;;2.00;2.00;;;;;9.57;71.80;99879.41;5064293;28;45330;-69
2022/04/08 05:11:36;;;;;;;;;5.33;1.67;;;;;9.55;71.35;99875.19;5065676;28;45342;-69
2022/04/08 05:14:01;;;;;;;;;1.00;1.00;;;;;9.63;71.89;99873.38;5071339;28;45354;-69
2022/04/08 05:16:27;;;;;;;;;2.33;1.00;;;;;9.70;71.14;99860.00;5065475;28;46953;-68
2022/04/08 05:18:53;;;;;;;;;1.00;1.00;;;;;9.74;72.68;99855.94;5065125;28;45481;-69
2022/04/08 05:21:18;;;;;;;;;1.67;1.33;;;;;9.72;71.11;99852.53;5078688;28;45379;-69
2022/04/08 05:23:43;;;;;;;;;3.33;2.00;;;;;9.76;70.41;99843.06;5072197;28;45358;-69
2022/04/08 05:26:09;;;;;;;;;1.00;1.00;;;;;9.81;71.32;99850.69;5066659;28;47030;-69
2022/04/08 05:28:34;;;;;;;;;3.33;2.00;;;;;9.84;71.10;99845.78;5081350;27;45372;-69
2022/04/08 05:30:59;;;;;;;;;0.67;0.67;;;;;9.83;72.40;99844.09;5081425;28;45368;-69
2022/04/08 05:33:25;;;;;;;;;2.00;2.00;;;;;9.71;71.17;99840.00;5072845;28;45529;-69
2022/04/08 05:35:51;;;;;;;;;1.00;0.67;;;;;9.69;70.95;99833.88;5062995;28;45811;-68
2022/04/08 05:38:16;;;;;;;;;3.00;1.67;;;;;9.60;70.32;99821.31;5074100;28;45339;-69
2022/04/08 05:40:42;;;;;;;;;1.33;0.33;;;;;9.54;69.86;99817.41;5075698;28;45411;-67
2022/04/08 05:43:08;;;;;;;;;3.00;2.00;;;;;9.69;70.00;99815.75;5081610;27;45637;-68
2022/04/08 05:45:33;;;;;;;;;0.00;0.00;;;;;9.69;72.00;99804.91;5083538;28;45469;-68
2022/04/08 05:48:05;;;;;;;;;1.00;1.00;;;;;9.64;70.34;99801.81;5078509;27;45505;-68
2022/04/08 05:50:31;;;;;;;;;0.00;0.00;;;;;9.57;70.06;99795.34;5063752;28;45275;-68
2022/04/08 05:52:57;;;;;;;;;2.67;1.00;;;;;9.61;70.83;99793.19;5078402;28;45687;-68
2022/04/08 05:55:22;;;;;;;;;2.00;1.33;;;;;9.63;71.12;99789.28;5064494;28;45451;-68
2022/04/08 05:57:48;;;;;;;;;4.67;2.33;;;;;9.61;72.57;99785.88;5066054;28;45479;-68
2022/04/08 06:00:15;;;;;;;;;2.00;1.00;;;;;9.63;71.66;99793.88;5061128;28;45692;-69
2022/04/08 06:02:45;;;;;;;;;0.00;0.00;;;;;9.62;71.40;99782.16;5066792;28;45628;-69
2022/04/08 06:05:11;;;;;;;;;0.00;0.00;;;;;9.73;70.52;99772.84;5079191;28;48412;-69
2022/04/08 06:08:06;;;;;;;;;0.00;0.00;;;;;9.80;70.36;99771.16;5075869;28;45949;-69
2022/04/08 06:10:32;;;;;;;;;0.67;0.67;;;;;9.78;69.41;99759.66;5061789;28;45247;-69
2022/04/08 06:12:57;;;;;;;;;0.33;0.33;;;;;9.77;70.00;99752.53;5065322;28;45313;-69
2022/04/08 06:15:25;;;;;;;;;1.00;0.33;;;;;9.74;69.74;99748.28;5070696;28;46300;-69
2022/04/08 06:17:51;;;;;;;;;1.00;1.00;;;;;9.69;70.88;99747.09;5068003;28;45416;-68
2022/04/08 06:20:18;;;;;;;;;1.00;0.00;;;;;9.62;71.43;99744.19;5060085;28;45413;-69
2022/04/08 06:22:44;;;;;;;;;1.00;1.00;;;;;9.64;70.05;99734.00;5072916;28;45590;-68
2022/04/08 06:25:17;;;;;;;;;1.33;1.00;;;;;9.65;70.76;99733.00;5072176;27;46730;-69
2022/04/08 06:27:44;;;;;;;;;2.00;2.00;;;;;9.66;70.52;99717.59;5070703;27;45321;-68
2022/04/08 06:30:12;;;;;;;;;0.67;0.67;;;;;9.67;71.99;99713.84;5058630;28;45375;-68
2022/04/08 06:32:38;;;;;;;;;1.00;1.00;;;;;9.69;70.82;99706.41;5070720;28;45872;-70
2022/04/08 06:35:04;;;;;;;;;2.00;1.00;;;;;9.66;71.66;99702.16;5062710;28;45323;-69
2022/04/08 06:37:30;;;;;;;;;2.67;2.67;;;;;9.63;71.72;99709.81;5073378;28;45533;-69
2022/04/08 06:39:56;;;;;;;;;2.00;1.00;;;;;9.56;72.81;99706.06;5068368;28;45592;-69
2022/04/08 06:42:24;;;;;;;;;3.00;2.00;;;;;9.37;73.54;99696.34;5069268;28;45477;-69
2022/04/08 06:44:50;;;;;;;;;7.33;4.00;;;;;9.32;73.20;99699.56;5064002;28;46426;-68
2022/04/08 06:47:15;;;;;;;;;3.33;3.33;;;;;9.30;71.93;99695.31;5068882;28;45310;-70
2022/04/08 06:49:44;;;;;;;;;5.33;3.00;;;;;9.22;69.95;99696.16;5066246;28;45325;-69
2022/04/08 06:52:11;;;;;;;;;4.00;2.00;;;;;9.18;71.06;99694.78;5068562;28;45350;-69
2022/04/08 06:54:36;;;;;;;;;2.00;1.00;;;;;9.14;71.70;99697.97;5065735;27;45363;-69
2022/04/08 06:57:01;;;;;;;;;3.00;3.00;;;;;9.12;72.34;99692.75;5065126;28;45455;-68
2022/04/08 06:59:27;;;;;;;;;4.00;3.33;;;;;9.16;72.51;99702.22;5062841;28;45346;-68
2022/04/08 07:01:52;;;;;;;;;2.67;2.67;;;;;9.24;73.69;99701.41;5064975;28;45299;-68
2022/04/08 07:04:17;;;;;;;;;4.67;3.00;;;;;9.21;74.45;99697.16;5069389;28;45433;-69
2022/04/08 07:06:43;;;;;;;;;5.00;4.00;;;;;9.14;75.01;99698.81;5065296;27;45406;-69
2022/04/08 07:09:08;;;;;;;;;5.33;2.67;;;;;9.14;75.34;99697.97;5069956;28;45325;-69
2022/04/08 07:11:34;;;;;;;;;9.00;4.00;;;;;9.22;75.79;99700.72;5064285;28;45370;-69
2022/04/08 07:14:00;;;;;;;;;6.00;3.67;;;;;9.19;75.28;99688.38;5058170;28;46775;-69
2022/04/08 07:16:25;;;;;;;;;3.33;3.33;;;;;9.16;75.15;99677.00;5076416;27;45343;-69
2022/04/08 07:18:51;;;;;;;;;7.00;2.00;;;;;9.19;75.44;99677.53;5080874;27;45268;-69
2022/04/08 07:21:16;;;;;;;;;10.33;4.00;;;;;9.25;75.17;99668.72;5061752;28;45339;-69
2022/04/08 07:23:41;;;;;;;;;4.00;3.00;;;;;9.36;74.71;99671.09;5072577;28;45311;-68
2022/04/08 07:26:07;;;;;;;;;5.67;4.00;;;;;9.38;75.24;99654.69;5094523;27;45540;-68
2022/04/08 07:28:33;;;;;;;;;5.33;5.33;;;;;9.41;74.64;99653.50;5095386;27;45266;-68
2022/04/08 07:30:59;;;;;;;;;7.00;5.67;;;;;9.48;74.85;99655.38;5079723;28;45471;-68
2022/04/08 07:33:24;;;;;;;;;9.67;7.33;;;;;9.42;75.41;99638.94;5071222;28;45392;-68
2022/04/08 07:35:49;;;;;;;;;10.00;9.00;;;;;9.44;73.97;99626.88;5061311;28;45621;-68
2022/04/08 07:38:15;;;;;;;;;8.00;7.00;;;;;9.45;75.67;99627.75;5087794;27;45357;-68
2022/04/08 07:40:40;;;;;;;;;5.00;5.00;;;;;9.40;73.52;99622.00;5059825;28;45251;-73
2022/04/08 07:43:06;;;;;;;;;8.00;5.67;;;;;9.36;74.94;99611.47;5074567;28;45705;-67
2022/04/08 07:45:31;;;;;;;;;15.00;15.00;;;;;9.32;74.89;99602.00;5064609;28;45349;-68
2022/04/08 07:47:59;;;;;;;;;7.67;6.67;;;;;9.34;74.03;99597.25;5076590;28;45357;-69
2022/04/08 07:50:27;;;;;;;;;8.33;4.00;;;;;9.34;73.32;99581.00;5065850;28;45533;-67
2022/04/08 07:52:52;;;;;;;;;3.00;3.00;;;;;9.29;74.77;99579.78;5076154;28;45485;-67
2022/04/08 07:55:20;;;;;;;;;5.00;5.00;;;;;9.29;74.80;99568.94;5064988;28;45271;-67
2022/04/08 07:57:51;;;;;;;;;3.00;3.00;;;;;9.24;73.91;99561.31;5069113;28;45433;-68
2022/04/08 08:00:22;;;;;;;;;8.00;7.00;;;;;9.23;75.23;99567.75;5065445;28;45239;-68
2022/04/08 08:02:48;;;;;;;;;14.00;10.00;;;;;9.21;74.80;99550.81;5074273;28;45474;-68
2022/04/08 08:05:14;;;;;;;;;10.00;7.00;;;;;9.16;73.29;99542.34;5070242;28;45351;-67
2022/04/08 08:07:59;;;;;;;;;3.33;3.33;;;;;9.09;73.49;99535.91;5067509;28;45443;-68
2022/04/08 08:10:35;;;;;;;;;3.00;2.00;;;;;9.11;72.76;99533.03;5086595;27;45255;-68
2022/04/08 08:13:01;;;;;;;;;2.00;2.00;;;;;9.02;72.30;99528.63;5067829;28;45410;-68
2022/04/08 08:15:27;;;;;;;;;6.67;3.00;;;;;9.00;72.94;99528.78;5070398;28;45434;-69
2022/04/08 08:17:55;;;;;;;;;4.00;4.00;;;;;8.97;72.91;99521.00;5073562;28;45320;-68
2022/04/08 08:20:22;;;;;;;;;3.00;3.00;;;;;8.93;72.43;99525.06;5063291;28;45433;-69
2022/04/08 08:22:48;;;;;;;;;5.33;3.33;;;;;8.84;73.51;99528.78;5068996;28;45453;-69
2022/04/08 08:25:14;;;;;;;;;8.33;4.33;;;;;8.82;73.78;99515.41;5085168;28;45469;-67
2022/04/08 08:27:40;;;;;;;;;4.33;4.33;;;;;8.81;72.80;99502.88;5080024;27;45447;-70
2022/04/08 08:30:10;;;;;;;;;4.00;4.00;;;;;8.68;74.40;99498.97;5085814;27;45193;-67
2022/04/08 08:32:36;;;;;;;;;6.00;3.33;;;;;8.55;73.83;99519.22;5076580;27;46932;-69
2022/04/08 08:35:01;;;;;;;;;4.33;4.00;;;;;8.64;75.66;99503.00;5071059;28;45582;-68
2022/04/08 08:37:27;;;;;;;;;4.33;4.00;;;;;8.72;75.04;99478.66;5073595;28;45403;-67
2022/04/08 08:39:55;;;;;;;;;7.00;7.00;;;;;8.86;75.14;99480.69;5070341;28;45315;-69
2022/04/08 08:42:22;;;;;;;;;7.00;4.67;;;;;8.85;75.53;99476.28;5071804;28;46559;-69
2022/04/08 08:44:47;;;;;;;;;4.00;4.00;;;;;8.77;75.13;99470.88;5084628;28;45258;-69
2022/04/08 08:47:14;;;;;;;;;8.67;6.33;;;;;8.74;74.71;99473.94;5072845;28;45318;-68
2022/04/08 08:49:47;;;;;;;;;5.33;5.33;;;;;8.71;75.12;99464.25;5076302;28;45476;-68
2022/04/08 08:52:14;;;;;;;;;7.33;7.00;;;;;8.73;76.42;99466.81;5074578;28;47055;-68
2022/04/08 08:54:40;;;;;;;;;5.00;3.33;;;;;8.64;76.71;99456.97;5079484;28;45386;-68
2022/04/08 08:57:09;;;;;;;;;8.00;8.00;;;;;8.60;77.23;99451.06;5074184;28;45509;-68
2022/04/08 08:59:36;;;;;;;;;6.00;4.00;;;;;8.50;77.10;99443.09;5075119;28;45358;-68
2022/04/08 09:02:03;;;;;;;;;7.33;4.00;;;;;8.48;76.37;99433.44;5068598;28;47388;-68
2022/04/08 09:04:29;;;;;;;;;7.00;7.00;;;;;8.50;75.80;99424.16;5077033;28;45168;-68
2022/04/08 09:06:55;;;;;;;;;3.33;3.33;;;;;8.49;77.66;99414.31;5066740;27;46058;-67
2022/04/08 09:09:31;;;;;;;;;2.00;2.00;;;;;8.48;77.60;99385.56;5077968;28;45326;-68
2022/04/08 09:12:13;;;;;;;;;4.00;4.00;;;;;8.37;75.51;99356.13;5075319;28;45395;-68
2022/04/08 09:14:38;;;;;;;;;7.00;4.00;;;;;8.33;75.52;99383.72;5064738;28;45254;-68
2022/04/08 09:17:04;;;;;;;;;7.00;5.00;;;;;8.30;75.99;99398.38;5069142;28;45410;-68
2022/04/08 09:19:34;;;;;;;;;4.00;3.00;;;;;8.26;76.04;99405.13;5067931;28;45528;-68
2022/04/08 09:22:00;;;;;;;;;3.00;2.00;;;;;8.27;76.36;99387.03;5068343;28;46143;-68
2022/04/08 09:24:29;;;;;;;;;8.67;2.00;;;;;8.18;75.90;99362.66;5070441;28;45290;-68
2022/04/08 09:26:55;;;;;;;;;7.67;7.00;;;;;8.06;75.32;99347.78;5071685;28;45389;-68
2022/04/08 09:29:21;;;;;;;;;9.33;4.00;;;;;8.02;76.36;99372.63;5082904;27;45246;-68
2022/04/08 09:31:55;;;;;;;;;2.00;2.00;;;;;8.00;76.93;99374.66;5065917;28;46175;-68
2022/04/08 09:34:21;;;;;;;;;6.00;3.00;;;;;7.93;75.27;99368.22;5070021;28;45506;-68
2022/04/08 09:36:46;;;;;;;;;4.00;4.00;;;;;7.89;76.75;99383.09;5064956;28;45464;-68
2022/04/08 09:39:13;;;;;;;;;11.67;11.67;;;;;7.81;78.96;99416.34;5071915;28;45377;-67
2022/04/08 09:41:44;;;;;;;;;3.67;3.00;;;;;7.73;81.28;99419.88;5065125;28;46456;-68
2022/04/08 09:44:14;;;;;;;;;18.50;15.00;;;;;7.74;82.46;99393.69;5068857;28;45345;-69
2022/04/08 09:46:40;;;;;;;;;14.33;10.33;;;;;7.71;82.08;99362.41;5065966;28;45562;-68
2022/04/08 09:49:06;;;;;;;;;4.00;4.00;;;;;7.61;83.00;99404.06;5072828;28;45237;-68
2022/04/08 09:51:51;;;;;;;;;5.33;3.00;;;;;7.69;84.20;99415.78;5066337;28;45412;-69
2022/04/08 09:54:20;;;;;;;;;8.00;6.67;;;;;7.81;84.36;99400.13;5078833;28;45246;-69
2022/04/08 09:56:46;;;;;;;;;11.67;8.33;;;;;7.82;81.88;99361.22;5067866;28;45396;-69
2022/04/08 09:59:19;;;;;;;;;6.33;4.00;;;;;7.80;81.87;99337.09;5081702;27;45462;-69
2022/04/08 10:01:47;;;;;;;;;2.00;2.00;;;;;7.27;82.56;99402.22;5074657;27;47095;-68
2022/04/08 10:04:13;;;;;;;;;2.00;2.00;;;;;7.33;83.15;99452.06;5071681;28;45379;-67
2022/04/08 10:06:40;;;;;;;;;10.67;7.33;;;;;7.51;83.78;99401.53;5068319;27;45446;-67
2022/04/08 10:09:11;;;;;;;;;3.00;3.00;;;;;7.56;82.76;99355.91;5064217;28;45741;-67
2022/04/08 10:12:06;;;;;;;;;5.67;1.00;;;;;7.16;83.41;99434.06;5064993;28;45403;-69
2022/04/08 10:14:38;;;;;;;;;7.67;4.00;;;;;7.23;84.80;99470.25;5074963;27;45540;-68
2022/04/08 10:17:04;;;;;;;;;7.33;4.33;;;;;7.40;85.06;99443.16;5071923;28;45297;-69
2022/04/08 10:19:30;;;;;;;;;4.00;4.00;;;;;7.54;84.39;99390.38;5066767;28;45394;-69
2022/04/08 10:21:55;;;;;;;;;1.67;1.67;;;;;7.60;83.07;99380.75;5066112;28;45330;-68
2022/04/08 10:24:26;;;;;;;;;4.33;3.67;;;;;7.55;82.61;99364.19;5070032;27;45290;-68
2022/04/08 10:26:58;;;;;;;;;9.67;7.67;;;;;7.55;81.91;99354.22;5069269;28;45317;-68
2022/04/08 10:29:24;;;;;;;;;7.33;4.67;;;;;7.60;81.59;99334.81;5077490;27;45444;-69
2022/04/08 10:31:58;;;;;;;;;5.67;4.00;;;;;7.52;81.01;99327.53;5071414;28;47026;-69
2022/04/08 10:34:24;;;;;;;;;5.33;5.33;;;;;7.60;81.60;99313.19;5068925;28;45572;-70
2022/04/08 10:36:49;;;;;;;;;2.33;2.33;;;;;7.64;80.38;99269.47;5068798;28;45308;-70
2022/04/08 10:39:20;;;;;;;;;4.00;3.00;;;;;7.66;80.31;99267.44;5071566;28;45310;-69
2022/04/08 10:41:51;;;;;;;;;3.33;3.33;;;;;7.68;80.66;99272.66;5064725;28;45441;-69
2022/04/08 10:44:33;;;;;;;;;4.67;4.00;;;;;7.64;79.58;99257.81;5074169;28;45402;-69
2022/04/08 10:47:08;;;;;;;;;4.67;3.00;;;;;7.55;80.79;99259.63;5066871;28;45377;-70
2022/04/08 10:49:34;;;;;;;;;12.00;8.00;;;;;7.58;80.71;99261.16;5068705;28;45306;-68
2022/04/08 10:51:59;;;;;;;;;5.67;5.33;;;;;7.56;80.53;99253.22;5064561;28;46134;-69
2022/04/08 10:54:35;;;;;;;;;7.00;7.00;;;;;7.57;81.03;99281.94;5062621;28;45337;-69
2022/04/08 10:57:00;;;;;;;;;7.67;4.00;;;;;7.25;82.13;99335.84;5066995;28;45470;-68
2022/04/08 10:59:27;;;;;;;;;3.00;3.00;;;;;7.35;82.70;99336.59;5062771;28;45576;-68
2022/04/08 11:01:58;;;;;;;;;2.00;2.00;;;;;7.45;81.48;99223.81;5074577;28;45390;-69
2022/04/08 11:04:26;;;;;;;;;1.67;1.67;;;;;7.48;80.76;99255.91;5071828;28;45318;-68
2022/04/08 11:06:52;;;;;;;;;2.33;0.67;;;;;7.01;81.95;99315.81;5065187;27;45200;-68
2022/04/08 11:09:18;;;;;;;;;2.00;2.00;;;;;7.20;83.47;99300.38;5062057;28;45173;-67
2022/04/08 11:11:46;;;;;;;;;3.67;3.67;;;;;7.19;83.33;99293.28;5064290;28;46496;-68
2022/04/08 11:14:12;;;;;;;;;4.00;3.00;;;;;7.35;83.16;99275.28;5063287;28;45392;-68
2022/04/08 11:16:39;;;;;;;;;7.33;6.00;;;;;7.38;83.71;99276.78;5066185;28;45707;-68
2022/04/08 11:19:06;;;;;;;;;6.67;5.00;;;;;7.33;82.58;99262.94;5072377;27;45393;-68
2022/04/08 11:21:36;;;;;;;;;4.00;4.00;;;;;7.32;82.67;99256.69;5067500;28;46128;-68
2022/04/08 11:24:07;;;;;;;;;5.33;4.67;;;;;7.48;81.63;99255.91;5076645;28;45883;-70
2022/04/08 11:26:52;;;;;;;;;3.00;3.00;;;;;7.49;81.06;99249.50;5079328;27;45488;-68
2022/04/08 11:29:19;;;;;;;;;7.67;4.33;;;;;7.59;80.95;99225.88;5081105;27;45612;-70
2022/04/08 11:31:47;;;;;;;;;8.00;6.00;;;;;7.62;80.56;99225.53;5072370;28;46648;-70